createdAt,value
2018-11-13T00:00:26.799Z,1011.95
2018-11-13T00:01:26.775Z,1011.94
2018-11-13T00:02:26.753Z,1011.95
2018-11-13T00:03:26.729Z,1011.94
2018-11-13T00:04:26.722Z,1011.92
2018-11-13T00:05:26.691Z,1011.93
2018-11-13T00:06:26.667Z,1011.94
2018-11-13T00:07:26.646Z,1011.91
2018-11-13T00:08:26.624Z,1011.86
2018-11-13T00:09:26.602Z,1011.83
2018-11-13T00:10:26.582Z,1011.87
2018-11-13T00:11:26.668Z,1011.82
2018-11-13T00:12:26.540Z,1011.85
2018-11-13T00:13:26.519Z,1011.80
2018-11-13T00:14:26.498Z,1011.85
2018-11-13T00:15:26.479Z,1011.83
2018-11-13T00:16:27.208Z,1011.87
2018-11-13T00:17:26.435Z,1011.89
2018-11-13T00:18:26.416Z,1011.89
2018-11-13T00:19:26.394Z,1011.89
2018-11-13T00:20:26.374Z,1011.96
2018-11-13T00:21:26.354Z,1011.97
2018-11-13T00:22:26.334Z,1012.03
2018-11-13T00:23:26.310Z,1012.09
2018-11-13T00:24:26.290Z,1012.08
2018-11-13T00:25:26.268Z,1012.08
2018-11-13T00:26:26.246Z,1012.22
2018-11-13T00:27:26.235Z,1012.25
2018-11-13T00:28:26.206Z,1012.25
2018-11-13T00:29:26.223Z,1012.28
2018-11-13T00:30:26.164Z,1012.27
2018-11-13T00:31:26.144Z,1012.23
2018-11-13T00:32:26.121Z,1012.21
2018-11-13T00:33:26.102Z,1012.19
2018-11-13T00:34:26.080Z,1012.17
2018-11-13T00:35:26.060Z,1012.12
2018-11-13T00:36:26.041Z,1012.11
2018-11-13T00:37:26.017Z,1012.06
2018-11-13T00:38:26.000Z,1012.05
2018-11-13T00:39:25.975Z,1012.01
2018-11-13T00:40:25.959Z,1011.94
2018-11-13T00:41:25.933Z,1011.90
2018-11-13T00:42:25.914Z,1011.89
2018-11-13T00:43:25.892Z,1011.94
2018-11-13T00:44:25.872Z,1011.92
2018-11-13T00:45:25.906Z,1011.92
2018-11-13T00:46:25.829Z,1011.98
2018-11-13T00:47:25.810Z,1011.98
2018-11-13T00:48:26.262Z,1012.00
2018-11-13T00:49:26.152Z,1012.03
2018-11-13T00:50:25.744Z,1012.06
2018-11-13T00:51:25.724Z,1012.11
2018-11-13T00:52:25.702Z,1012.13
2018-11-13T00:53:25.682Z,1012.15
2018-11-13T00:54:25.661Z,1012.13
2018-11-13T00:55:25.640Z,1012.15
2018-11-13T00:56:25.618Z,1012.14
2018-11-13T00:57:25.598Z,1012.19
2018-11-13T00:58:25.578Z,1012.21
2018-11-13T00:59:25.570Z,1012.21
2018-11-13T01:00:25.533Z,1012.21
2018-11-13T01:01:25.515Z,1012.20
2018-11-13T01:02:25.493Z,1012.19
2018-11-13T01:03:25.471Z,1012.17
2018-11-13T01:04:25.449Z,1012.17
2018-11-13T01:05:25.552Z,1012.11
2018-11-13T01:06:25.408Z,1012.09
2018-11-13T01:07:25.389Z,1012.09
2018-11-13T01:08:25.367Z,1012.07
2018-11-13T01:09:25.346Z,1012.06
2018-11-13T01:10:25.325Z,1012.07
2018-11-13T01:11:25.303Z,1012.10
2018-11-13T01:12:25.284Z,1012.06
2018-11-13T01:13:25.261Z,1012.02
2018-11-13T01:14:25.238Z,1012.03
2018-11-13T01:15:25.222Z,1012.01
2018-11-13T01:16:25.197Z,1011.96
2018-11-13T01:17:25.197Z,1011.96
2018-11-13T01:18:25.156Z,1011.93
2018-11-13T01:19:25.135Z,1011.85
2018-11-13T01:20:25.112Z,1011.80
2018-11-13T01:21:25.092Z,1011.78
2018-11-13T01:22:25.109Z,1011.74
2018-11-13T01:23:25.373Z,1011.74
2018-11-13T01:24:25.032Z,1011.71
2018-11-13T01:25:25.014Z,1011.72
2018-11-13T01:26:24.986Z,1011.77
2018-11-13T01:27:24.968Z,1011.79
2018-11-13T01:28:24.944Z,1011.78
2018-11-13T01:29:24.924Z,1011.86
2018-11-13T01:30:24.905Z,1011.90
2018-11-13T01:31:24.885Z,1011.97
2018-11-13T01:32:24.861Z,1012.01
2018-11-13T01:33:24.841Z,1012.02
2018-11-13T01:34:24.819Z,1012.07
2018-11-13T01:35:24.799Z,1012.09
2018-11-13T01:36:24.780Z,1012.07
2018-11-13T01:37:24.755Z,1012.11
2018-11-13T01:38:24.735Z,1012.09
2018-11-13T01:39:24.713Z,1012.04
2018-11-13T01:40:24.693Z,1012.03
2018-11-13T01:41:24.676Z,1012.02
2018-11-13T01:42:24.649Z,1012.01
2018-11-13T01:43:24.630Z,1012.03
2018-11-13T01:44:24.608Z,1012.03
2018-11-13T01:45:24.587Z,1012.05
2018-11-13T01:46:25.216Z,1012.04
2018-11-13T01:47:24.545Z,1012.06
2018-11-13T01:48:24.525Z,1012.04
2018-11-13T01:49:24.513Z,1012.08
2018-11-13T01:50:24.482Z,1012.10
2018-11-13T01:51:24.462Z,1012.10
2018-11-13T01:52:24.439Z,1012.13
2018-11-13T01:53:24.417Z,1012.18
2018-11-13T01:54:24.403Z,1012.16
2018-11-13T01:55:24.375Z,1012.23
2018-11-13T01:56:24.354Z,1012.26
2018-11-13T01:57:24.336Z,1012.27
2018-11-13T01:58:24.313Z,1012.30
2018-11-13T01:59:24.292Z,1012.25
2018-11-13T02:00:24.270Z,1012.18
2018-11-13T02:01:24.257Z,1012.17
2018-11-13T02:02:24.229Z,1012.16
2018-11-13T02:03:24.208Z,1012.15
2018-11-13T02:04:24.185Z,1012.27
2018-11-13T02:05:24.164Z,1012.32
2018-11-13T02:06:24.154Z,1012.32
2018-11-13T02:07:24.125Z,1012.38
2018-11-13T02:08:24.102Z,1012.40
2018-11-13T02:09:24.081Z,1012.31
2018-11-13T02:10:24.058Z,1012.29
2018-11-13T02:11:24.038Z,1012.23
2018-11-13T02:12:24.016Z,1012.18
2018-11-13T02:13:23.995Z,1012.17
2018-11-13T02:14:23.975Z,1012.15
2018-11-13T02:15:23.953Z,1012.11
2018-11-13T02:16:23.932Z,1012.11
2018-11-13T02:17:23.912Z,1012.13
2018-11-13T02:18:23.948Z,1012.08
2018-11-13T02:19:23.869Z,1012.08
2018-11-13T02:20:23.847Z,1012.05
2018-11-13T02:21:23.826Z,1012.05
2018-11-13T02:22:23.805Z,1011.98
2018-11-13T02:23:23.783Z,1011.99
2018-11-13T02:24:23.760Z,1012.02
2018-11-13T02:25:23.741Z,1012.03
2018-11-13T02:26:23.721Z,1011.99
2018-11-13T02:27:23.699Z,1011.97
2018-11-13T02:28:23.678Z,1011.94
2018-11-13T02:29:23.656Z,1011.90
2018-11-13T02:30:23.635Z,1011.92
2018-11-13T02:31:23.613Z,1011.89
2018-11-13T02:32:23.593Z,1011.84
2018-11-13T02:33:23.571Z,1011.81
2018-11-13T02:34:23.556Z,1011.77
2018-11-13T02:35:23.592Z,1011.80
2018-11-13T02:36:23.509Z,1011.80
2018-11-13T02:37:23.489Z,1011.79
2018-11-13T02:38:23.465Z,1011.84
2018-11-13T02:39:23.448Z,1011.87
2018-11-13T02:40:23.424Z,1011.94
2018-11-13T02:41:23.405Z,1011.92
2018-11-13T02:42:23.382Z,1011.96
2018-11-13T02:43:23.359Z,1011.94
2018-11-13T02:44:23.336Z,1011.95
2018-11-13T02:45:23.319Z,1011.93
2018-11-13T02:46:23.329Z,1011.92
2018-11-13T02:47:23.275Z,1011.94
2018-11-13T02:48:23.251Z,1011.93
2018-11-13T02:49:23.233Z,1011.92
2018-11-13T02:50:23.210Z,1011.93
2018-11-13T02:51:23.190Z,1011.96
2018-11-13T02:52:23.169Z,1012.04
2018-11-13T02:53:23.147Z,1012.07
2018-11-13T02:54:23.126Z,1012.16
2018-11-13T02:55:23.103Z,1012.18
2018-11-13T02:56:23.080Z,1012.23
2018-11-13T02:57:23.062Z,1012.18
2018-11-13T02:58:23.052Z,1012.15
2018-11-13T02:59:23.128Z,1012.13
2018-11-13T03:00:23.000Z,1012.09
2018-11-13T03:01:22.977Z,1012.09
2018-11-13T03:02:22.954Z,1012.03
2018-11-13T03:03:22.933Z,1012.06
2018-11-13T03:04:22.910Z,1012.04
2018-11-13T03:05:22.896Z,1012.04
2018-11-13T03:06:22.870Z,1012.04
2018-11-13T03:07:22.855Z,1012.03
2018-11-13T03:08:22.826Z,1012.06
2018-11-13T03:09:22.807Z,1012.05
2018-11-13T03:10:22.782Z,1012.06
2018-11-13T03:11:22.764Z,1012.06
2018-11-13T03:12:22.766Z,1012.04
2018-11-13T03:13:22.720Z,1011.99
2018-11-13T03:14:22.700Z,1012.00
2018-11-13T03:15:22.676Z,1012.01
2018-11-13T03:16:22.654Z,1012.08
2018-11-13T03:17:22.633Z,1012.06
2018-11-13T03:18:23.183Z,1012.07
2018-11-13T03:19:22.591Z,1012.11
2018-11-13T03:20:22.569Z,1012.08
2018-11-13T03:21:22.549Z,1012.08
2018-11-13T03:22:22.528Z,1012.07
2018-11-13T03:23:22.507Z,1012.11
2018-11-13T03:24:22.483Z,1012.13
2018-11-13T03:25:22.462Z,1012.20
2018-11-13T03:26:22.442Z,1012.16
2018-11-13T03:27:22.420Z,1012.14
2018-11-13T03:28:22.400Z,1012.09
2018-11-13T03:29:22.377Z,1012.04
2018-11-13T03:30:22.355Z,1012.01
2018-11-13T03:31:22.440Z,1011.99
2018-11-13T03:32:22.315Z,1011.93
2018-11-13T03:33:22.290Z,1011.90
2018-11-13T03:34:22.270Z,1011.89
2018-11-13T03:35:22.258Z,1011.93
2018-11-13T03:36:22.227Z,1011.93
2018-11-13T03:37:22.205Z,1011.99
2018-11-13T03:38:22.185Z,1012.01
2018-11-13T03:39:22.164Z,1012.01
2018-11-13T03:40:22.144Z,1011.98
2018-11-13T03:41:22.121Z,1012.05
2018-11-13T03:42:22.098Z,1012.04
2018-11-13T03:43:22.076Z,1012.05
2018-11-13T03:44:22.055Z,1012.03
2018-11-13T03:45:22.034Z,1012.02
2018-11-13T03:46:22.012Z,1012.05
2018-11-13T03:47:21.992Z,1012.05
2018-11-13T03:48:21.978Z,1012.13
2018-11-13T03:49:21.949Z,1012.18
2018-11-13T03:50:21.927Z,1012.22
2018-11-13T03:51:21.905Z,1012.29
2018-11-13T03:52:21.884Z,1012.29
2018-11-13T03:53:21.863Z,1012.28
2018-11-13T03:54:21.843Z,1012.35
2018-11-13T03:55:21.819Z,1012.33
2018-11-13T03:56:21.799Z,1012.34
2018-11-13T03:57:21.776Z,1012.37
2018-11-13T03:58:21.756Z,1012.42
2018-11-13T03:59:21.734Z,1012.48
2018-11-13T04:00:21.710Z,1012.50
2018-11-13T04:01:21.691Z,1012.44
2018-11-13T04:02:21.674Z,1012.42
2018-11-13T04:03:21.653Z,1012.35
2018-11-13T04:04:21.630Z,1012.32
2018-11-13T04:05:21.613Z,1012.35
2018-11-13T04:06:21.584Z,1012.39
2018-11-13T04:07:21.561Z,1012.42
2018-11-13T04:08:21.550Z,1012.52
2018-11-13T04:09:21.518Z,1012.60
2018-11-13T04:10:21.499Z,1012.64
2018-11-13T04:11:21.476Z,1012.63
2018-11-13T04:12:21.454Z,1012.67
2018-11-13T04:13:21.433Z,1012.64
2018-11-13T04:14:21.411Z,1012.64
2018-11-13T04:15:21.391Z,1012.63
2018-11-13T04:16:21.368Z,1012.59
2018-11-13T04:17:21.347Z,1012.61
2018-11-13T04:18:21.325Z,1012.53
2018-11-13T04:19:21.308Z,1012.47
2018-11-13T04:20:21.283Z,1012.53
2018-11-13T04:21:21.262Z,1012.54
2018-11-13T04:22:21.250Z,1012.46
2018-11-13T04:23:21.224Z,1012.43
2018-11-13T04:24:21.222Z,1012.34
2018-11-13T04:25:21.176Z,1012.32
2018-11-13T04:26:21.156Z,1012.35
2018-11-13T04:27:21.138Z,1012.42
2018-11-13T04:28:21.112Z,1012.44
2018-11-13T04:29:21.093Z,1012.46
2018-11-13T04:30:21.069Z,1012.47
2018-11-13T04:31:21.047Z,1012.40
2018-11-13T04:32:21.024Z,1012.37
2018-11-13T04:33:21.003Z,1012.32
2018-11-13T04:34:20.985Z,1012.36
2018-11-13T04:35:20.960Z,1012.35
2018-11-13T04:36:20.939Z,1012.37
2018-11-13T04:37:20.920Z,1012.32
2018-11-13T04:38:20.896Z,1012.27
2018-11-13T04:39:20.875Z,1012.31
2018-11-13T04:40:20.852Z,1012.34
2018-11-13T04:41:20.833Z,1012.33
2018-11-13T04:42:20.814Z,1012.31
2018-11-13T04:43:20.792Z,1012.33
2018-11-13T04:44:20.767Z,1012.35
2018-11-13T04:45:20.744Z,1012.36
2018-11-13T04:46:20.728Z,1012.35
2018-11-13T04:47:20.703Z,1012.38
2018-11-13T04:48:20.679Z,1012.42
2018-11-13T04:49:20.684Z,1012.37
2018-11-13T04:50:20.638Z,1012.40
2018-11-13T04:51:20.638Z,1012.33
2018-11-13T04:52:20.593Z,1012.36
2018-11-13T04:53:20.573Z,1012.37
2018-11-13T04:54:20.552Z,1012.32
2018-11-13T04:55:20.531Z,1012.28
2018-11-13T04:56:20.509Z,1012.30
2018-11-13T04:57:20.485Z,1012.29
2018-11-13T04:58:20.466Z,1012.31
2018-11-13T04:59:20.445Z,1012.30
2018-11-13T05:00:20.421Z,1012.32
2018-11-13T05:01:20.400Z,1012.32
2018-11-13T05:02:20.379Z,1012.36
2018-11-13T05:03:20.358Z,1012.31
2018-11-13T05:04:20.339Z,1012.33
2018-11-13T05:05:20.319Z,1012.28
2018-11-13T05:06:20.299Z,1012.21
2018-11-13T05:07:20.275Z,1012.17
2018-11-13T05:08:20.251Z,1012.19
2018-11-13T05:09:20.230Z,1012.22
2018-11-13T05:10:20.370Z,1012.28
2018-11-13T05:11:20.188Z,1012.31
2018-11-13T05:12:20.165Z,1012.27
2018-11-13T05:13:20.144Z,1012.27
2018-11-13T05:14:20.124Z,1012.31
2018-11-13T05:15:20.102Z,1012.35
2018-11-13T05:16:20.080Z,1012.42
2018-11-13T05:17:20.061Z,1012.44
2018-11-13T05:18:20.037Z,1012.44
2018-11-13T05:19:20.019Z,1012.49
2018-11-13T05:20:20.000Z,1012.51
2018-11-13T05:21:19.979Z,1012.53
2018-11-13T05:22:19.952Z,1012.63
2018-11-13T05:23:19.985Z,1012.69
2018-11-13T05:24:19.912Z,1012.74
2018-11-13T05:25:19.887Z,1012.80
2018-11-13T05:26:19.866Z,1012.74
2018-11-13T05:27:19.845Z,1012.73
2018-11-13T05:28:19.822Z,1012.70
2018-11-13T05:29:19.809Z,1012.73
2018-11-13T05:30:19.781Z,1012.76
2018-11-13T05:31:19.762Z,1012.74
2018-11-13T05:32:19.741Z,1012.78
2018-11-13T05:33:19.717Z,1012.79
2018-11-13T05:34:19.698Z,1012.79
2018-11-13T05:35:19.674Z,1012.78
2018-11-13T05:36:19.654Z,1012.79
2018-11-13T05:37:19.640Z,1012.79
2018-11-13T05:38:19.610Z,1012.72
2018-11-13T05:39:19.590Z,1012.66
2018-11-13T05:40:19.567Z,1012.67
2018-11-13T05:41:19.547Z,1012.75
2018-11-13T05:42:19.525Z,1012.76
2018-11-13T05:43:19.505Z,1012.80
2018-11-13T05:44:19.483Z,1012.79
2018-11-13T05:45:19.495Z,1012.77
2018-11-13T05:46:19.441Z,1012.66
2018-11-13T05:47:19.560Z,1012.63
2018-11-13T05:48:19.399Z,1012.61
2018-11-13T05:49:19.376Z,1012.61
2018-11-13T05:50:19.550Z,1012.68
2018-11-13T05:51:19.334Z,1012.75
2018-11-13T05:52:19.313Z,1012.72
2018-11-13T05:53:19.291Z,1012.66
2018-11-13T05:54:19.269Z,1012.69
2018-11-13T05:55:19.248Z,1012.75
2018-11-13T05:56:19.234Z,1012.78
2018-11-13T05:57:19.207Z,1012.80
2018-11-13T05:58:19.185Z,1012.81
2018-11-13T05:59:19.164Z,1012.78
2018-11-13T06:00:19.145Z,1012.80
2018-11-13T06:01:19.121Z,1012.83
2018-11-13T06:02:19.099Z,1012.87
2018-11-13T06:03:19.078Z,1012.85
2018-11-13T06:04:19.056Z,1012.89
2018-11-13T06:05:19.036Z,1012.91
2018-11-13T06:06:19.013Z,1012.92
2018-11-13T06:07:18.991Z,1012.90
2018-11-13T06:08:18.984Z,1012.94
2018-11-13T06:09:18.949Z,1012.95
2018-11-13T06:10:18.931Z,1012.97
2018-11-13T06:11:18.912Z,1012.98
2018-11-13T06:12:18.884Z,1013.01
2018-11-13T06:13:18.862Z,1013.03
2018-11-13T06:14:18.927Z,1013.04
2018-11-13T06:15:18.854Z,1013.09
2018-11-13T06:16:18.798Z,1013.15
2018-11-13T06:17:19.074Z,1013.10
2018-11-13T06:18:18.822Z,1013.08
2018-11-13T06:19:18.734Z,1013.09
2018-11-13T06:20:18.718Z,1013.10
2018-11-13T06:21:18.692Z,1013.12
2018-11-13T06:22:18.669Z,1013.08
2018-11-13T06:23:18.648Z,1013.10
2018-11-13T06:24:18.627Z,1013.12
2018-11-13T06:25:18.605Z,1013.06
2018-11-13T06:26:18.583Z,1013.10
2018-11-13T06:27:18.563Z,1013.12
2018-11-13T06:28:18.540Z,1013.17
2018-11-13T06:29:18.518Z,1013.14
2018-11-13T06:30:18.498Z,1013.15
2018-11-13T06:31:18.477Z,1013.16
2018-11-13T06:32:18.456Z,1013.08
2018-11-13T06:33:18.434Z,1013.09
2018-11-13T06:34:18.412Z,1013.10
2018-11-13T06:35:18.401Z,1013.08
2018-11-13T06:36:18.432Z,1013.09
2018-11-13T06:37:18.349Z,1013.08
2018-11-13T06:38:18.324Z,1013.10
2018-11-13T06:39:18.307Z,1013.05
2018-11-13T06:40:18.284Z,1013.08
2018-11-13T06:41:18.261Z,1013.13
2018-11-13T06:42:18.238Z,1013.15
2018-11-13T06:43:18.217Z,1013.18
2018-11-13T06:44:18.194Z,1013.20
2018-11-13T06:45:18.173Z,1013.26
2018-11-13T06:46:18.151Z,1013.25
2018-11-13T06:47:18.667Z,1013.26
2018-11-13T06:48:18.108Z,1013.31
2018-11-13T06:49:18.089Z,1013.32
2018-11-13T06:50:18.064Z,1013.28
2018-11-13T06:51:18.049Z,1013.34
2018-11-13T06:52:18.020Z,1013.40
2018-11-13T06:53:17.999Z,1013.39
2018-11-13T06:54:17.981Z,1013.37
2018-11-13T06:55:17.955Z,1013.37
2018-11-13T06:56:17.935Z,1013.36
2018-11-13T06:57:17.914Z,1013.37
2018-11-13T06:58:17.891Z,1013.35
2018-11-13T06:59:17.868Z,1013.33
2018-11-13T07:00:17.848Z,1013.30
2018-11-13T07:01:17.825Z,1013.33
2018-11-13T07:02:17.806Z,1013.32
2018-11-13T07:03:17.781Z,1013.39
2018-11-13T07:04:17.759Z,1013.43
2018-11-13T07:05:17.738Z,1013.41
2018-11-13T07:06:17.717Z,1013.44
2018-11-13T07:07:17.695Z,1013.50
2018-11-13T07:08:17.674Z,1013.47
2018-11-13T07:09:17.652Z,1013.53
2018-11-13T07:10:17.628Z,1013.56
2018-11-13T07:11:17.726Z,1013.58
2018-11-13T07:12:17.588Z,1013.63
2018-11-13T07:13:17.563Z,1013.62
2018-11-13T07:14:17.550Z,1013.66
2018-11-13T07:15:17.523Z,1013.69
2018-11-13T07:16:17.498Z,1013.72
2018-11-13T07:17:17.477Z,1013.74
2018-11-13T07:18:17.475Z,1013.74
2018-11-13T07:19:17.434Z,1013.77
2018-11-13T07:20:17.410Z,1013.74
2018-11-13T07:21:17.390Z,1013.77
2018-11-13T07:22:17.367Z,1013.78
2018-11-13T07:23:17.345Z,1013.83
2018-11-13T07:24:17.326Z,1013.78
2018-11-13T07:25:17.389Z,1013.85
2018-11-13T07:26:17.280Z,1013.77
2018-11-13T07:27:17.299Z,1013.81
2018-11-13T07:28:17.236Z,1013.79
2018-11-13T07:29:17.218Z,1013.75
2018-11-13T07:30:17.196Z,1013.74
2018-11-13T07:31:17.225Z,1013.78
2018-11-13T07:32:17.149Z,1013.77
2018-11-13T07:33:17.129Z,1013.79
2018-11-13T07:34:17.174Z,1013.80
2018-11-13T07:35:17.085Z,1013.82
2018-11-13T07:36:17.062Z,1013.83
2018-11-13T07:37:17.072Z,1013.85
2018-11-13T07:38:17.019Z,1013.82
2018-11-13T07:39:16.997Z,1013.84
2018-11-13T07:40:16.978Z,1013.87
2018-11-13T07:41:17.115Z,1013.84
2018-11-13T07:42:16.933Z,1013.83
2018-11-13T07:43:16.911Z,1013.87
2018-11-13T07:44:16.890Z,1013.91
2018-11-13T07:45:16.869Z,1013.88
2018-11-13T07:46:16.847Z,1013.93
2018-11-13T07:47:17.022Z,1013.95
2018-11-13T07:48:16.804Z,1013.93
2018-11-13T07:49:16.781Z,1013.90
2018-11-13T07:50:16.763Z,1013.94
2018-11-13T07:51:16.808Z,1013.87
2018-11-13T07:52:16.719Z,1013.99
2018-11-13T07:53:16.696Z,1013.91
2018-11-13T07:54:16.675Z,1013.91
2018-11-13T07:55:16.651Z,1013.93
2018-11-13T07:56:16.631Z,1013.89
2018-11-13T07:57:16.637Z,1013.94
2018-11-13T07:58:16.591Z,1013.98
2018-11-13T07:59:16.568Z,1013.92
2018-11-13T08:00:16.545Z,1013.91
2018-11-13T08:01:16.569Z,1013.89
2018-11-13T08:02:16.502Z,1013.94
2018-11-13T08:03:16.512Z,1013.89
2018-11-13T08:04:16.457Z,1013.89
2018-11-13T08:05:16.435Z,1013.90
2018-11-13T08:06:16.471Z,1013.90
2018-11-13T08:07:16.449Z,1013.89
2018-11-13T08:08:16.374Z,1013.93
2018-11-13T08:09:16.384Z,1013.92
2018-11-13T08:10:16.328Z,1013.90
2018-11-13T08:11:16.312Z,1013.88
2018-11-13T08:12:16.285Z,1013.88
2018-11-13T08:13:16.494Z,1013.88
2018-11-13T08:14:16.242Z,1013.91
2018-11-13T08:15:16.228Z,1013.93
2018-11-13T08:16:16.199Z,1013.95
2018-11-13T08:17:16.178Z,1013.95
2018-11-13T08:18:16.190Z,1014.01
2018-11-13T08:19:16.632Z,1014.04
2018-11-13T08:20:16.119Z,1014.06
2018-11-13T08:21:16.091Z,1014.06
2018-11-13T08:22:16.080Z,1014.05
2018-11-13T08:23:16.049Z,1014.09
2018-11-13T08:24:16.027Z,1014.05
2018-11-13T08:25:16.053Z,1014.14
2018-11-13T08:26:16.027Z,1014.15
2018-11-13T08:27:15.963Z,1014.18
2018-11-13T08:28:15.955Z,1014.15
2018-11-13T08:29:15.932Z,1014.17
2018-11-13T08:30:15.899Z,1014.16
2018-11-13T08:31:15.916Z,1014.14
2018-11-13T08:32:15.855Z,1014.18
2018-11-13T08:33:15.854Z,1014.17
2018-11-13T08:34:15.812Z,1014.16
2018-11-13T08:35:15.791Z,1014.16
2018-11-13T08:36:15.772Z,1014.15
2018-11-13T08:37:15.749Z,1014.23
2018-11-13T08:38:15.726Z,1014.23
2018-11-13T08:39:15.708Z,1014.24
2018-11-13T08:40:15.684Z,1014.23
2018-11-13T08:41:15.668Z,1014.30
2018-11-13T08:42:15.642Z,1014.43
2018-11-13T08:43:15.620Z,1014.38
2018-11-13T08:44:15.641Z,1014.39
2018-11-13T08:45:15.587Z,1014.43
2018-11-13T08:46:15.555Z,1014.44
2018-11-13T08:47:15.540Z,1014.53
2018-11-13T08:48:15.513Z,1014.51
2018-11-13T08:49:15.493Z,1014.54
2018-11-13T08:50:15.536Z,1014.57
2018-11-13T08:51:15.449Z,1014.75
2018-11-13T08:52:15.434Z,1014.57
2018-11-13T08:53:15.406Z,1014.47
2018-11-13T08:54:15.387Z,1014.52
2018-11-13T08:55:15.364Z,1014.57
2018-11-13T08:56:15.341Z,1014.62
2018-11-13T08:57:15.320Z,1014.59
2018-11-13T08:58:15.353Z,1014.52
2018-11-13T08:59:15.428Z,1014.61
2018-11-13T09:00:15.256Z,1014.62
2018-11-13T09:01:15.235Z,1014.65
2018-11-13T09:02:15.215Z,1014.57
2018-11-13T09:03:15.193Z,1014.63
2018-11-13T09:04:15.171Z,1014.65
2018-11-13T09:05:15.274Z,1014.72
2018-11-13T09:06:15.129Z,1014.67
2018-11-13T09:07:15.107Z,1014.67
2018-11-13T09:08:15.086Z,1014.87
2018-11-13T09:09:15.062Z,1014.81
2018-11-13T09:10:15.043Z,1014.76
2018-11-13T09:11:15.028Z,1014.77
2018-11-13T09:12:15.112Z,1014.76
2018-11-13T09:13:14.979Z,1014.81
2018-11-13T09:14:14.956Z,1014.88
2018-11-13T09:15:14.936Z,1014.76
2018-11-13T09:16:14.914Z,1014.87
2018-11-13T09:17:14.891Z,1014.80
2018-11-13T09:18:14.873Z,1014.83
2018-11-13T09:19:14.995Z,1014.84
2018-11-13T09:20:14.827Z,1014.85
2018-11-13T09:21:14.807Z,1014.82
2018-11-13T09:22:14.785Z,1014.82
2018-11-13T09:23:14.767Z,1014.83
2018-11-13T09:24:14.741Z,1014.84
2018-11-13T09:25:14.719Z,1014.81
2018-11-13T09:26:14.698Z,1014.78
2018-11-13T09:27:14.676Z,1014.97
2018-11-13T09:28:14.655Z,1014.85
2018-11-13T09:29:14.634Z,1014.95
2018-11-13T09:30:14.819Z,1014.85
2018-11-13T09:31:14.625Z,1014.89
2018-11-13T09:32:14.600Z,1014.90
2018-11-13T09:33:14.548Z,1014.91
2018-11-13T09:34:14.528Z,1014.87
2018-11-13T09:35:14.525Z,1014.94
2018-11-13T09:36:14.490Z,1014.89
2018-11-13T09:37:14.477Z,1014.98
2018-11-13T09:38:14.441Z,1015.02
2018-11-13T09:39:14.423Z,1014.97
2018-11-13T09:40:14.447Z,1014.96
2018-11-13T09:41:14.379Z,1014.89
2018-11-13T09:42:14.357Z,1014.87
2018-11-13T09:43:14.339Z,1014.88
2018-11-13T09:44:14.318Z,1014.85
2018-11-13T09:45:14.295Z,1014.85
2018-11-13T09:46:14.276Z,1014.79
2018-11-13T09:47:14.252Z,1014.88
2018-11-13T09:48:14.229Z,1014.80
2018-11-13T09:49:14.210Z,1014.72
2018-11-13T09:50:14.187Z,1014.80
2018-11-13T09:51:14.597Z,1014.73
2018-11-13T09:52:14.145Z,1014.76
2018-11-13T09:53:14.157Z,1014.71
2018-11-13T09:54:14.105Z,1014.75
2018-11-13T09:55:14.084Z,1014.79
2018-11-13T09:56:14.075Z,1014.74
2018-11-13T09:57:14.039Z,1014.82
2018-11-13T09:58:14.021Z,1014.91
2018-11-13T09:59:13.997Z,1014.91
2018-11-13T10:00:14.199Z,1014.86
2018-11-13T10:01:14.202Z,1014.92
2018-11-13T10:02:14.497Z,1014.82
2018-11-13T10:03:14.458Z,1014.83
2018-11-13T10:04:14.435Z,1014.92
2018-11-13T10:05:14.568Z,1014.92
2018-11-13T10:06:13.851Z,1014.80
2018-11-13T10:07:13.830Z,1014.90
2018-11-13T10:08:13.807Z,1014.91
2018-11-13T10:09:13.787Z,1014.91
2018-11-13T10:10:13.792Z,1014.97
2018-11-13T10:11:13.760Z,1015.03
2018-11-13T10:12:13.790Z,1015.06
2018-11-13T10:13:13.704Z,1015.01
2018-11-13T10:14:13.745Z,1015.01
2018-11-13T10:15:13.665Z,1014.96
2018-11-13T10:16:13.740Z,1015.00
2018-11-13T10:17:13.685Z,1015.00
2018-11-13T10:18:13.840Z,1015.06
2018-11-13T10:19:13.578Z,1014.95
2018-11-13T10:20:13.618Z,1015.07
2018-11-13T10:21:13.537Z,1014.97
2018-11-13T10:22:13.520Z,1014.96
2018-11-13T10:23:13.495Z,1014.90
2018-11-13T10:24:13.475Z,1014.98
2018-11-13T10:25:13.454Z,1015.03
2018-11-13T10:26:13.470Z,1015.11
2018-11-13T10:27:13.451Z,1015.00
2018-11-13T10:28:13.408Z,1015.02
2018-11-13T10:29:13.378Z,1015.03
2018-11-13T10:30:13.351Z,1014.94
2018-11-13T10:31:13.333Z,1015.04
2018-11-13T10:32:13.309Z,1015.03
2018-11-13T10:33:13.291Z,1015.00
2018-11-13T10:34:13.269Z,1014.99
2018-11-13T10:35:13.254Z,1014.94
2018-11-13T10:36:13.229Z,1014.95
2018-11-13T10:37:13.207Z,1014.94
2018-11-13T10:38:13.191Z,1014.97
2018-11-13T10:39:13.167Z,1014.99
2018-11-13T10:40:13.265Z,1014.99
2018-11-13T10:41:13.166Z,1014.99
2018-11-13T10:42:13.106Z,1015.01
2018-11-13T10:43:13.089Z,1015.00
2018-11-13T10:44:13.065Z,1014.95
2018-11-13T10:45:13.056Z,1014.93
2018-11-13T10:46:13.026Z,1014.90
2018-11-13T10:47:13.006Z,1014.87
2018-11-13T10:48:12.984Z,1014.92
2018-11-13T10:49:13.055Z,1014.92
2018-11-13T10:50:12.982Z,1014.96
2018-11-13T10:51:12.923Z,1014.88
2018-11-13T10:52:12.903Z,1014.88
2018-11-13T10:53:12.885Z,1014.88
2018-11-13T10:54:12.864Z,1014.87
2018-11-13T10:55:12.843Z,1014.87
2018-11-13T10:56:12.838Z,1014.89
2018-11-13T10:57:12.803Z,1014.95
2018-11-13T10:58:12.782Z,1014.96
2018-11-13T10:59:12.764Z,1015.01
2018-11-13T11:00:12.744Z,1014.95
2018-11-13T11:01:12.726Z,1014.96
2018-11-13T11:02:12.773Z,1015.06
2018-11-13T11:03:12.685Z,1014.91
2018-11-13T11:04:12.661Z,1014.88
2018-11-13T11:05:12.644Z,1014.97
2018-11-13T11:06:12.625Z,1014.97
2018-11-13T11:07:12.603Z,1014.97
2018-11-13T11:08:12.618Z,1014.94
2018-11-13T11:09:12.561Z,1014.95
2018-11-13T11:10:12.560Z,1014.98
2018-11-13T11:11:12.525Z,1014.98
2018-11-13T11:12:12.501Z,1014.97
2018-11-13T11:13:12.645Z,1014.97
2018-11-13T11:14:12.465Z,1014.92
2018-11-13T11:15:12.441Z,1014.95
2018-11-13T11:16:12.426Z,1014.95
2018-11-13T11:17:12.400Z,1015.02
2018-11-13T11:18:12.408Z,1015.04
2018-11-13T11:19:12.401Z,1015.10
2018-11-13T11:20:12.339Z,1015.06
2018-11-13T11:21:12.320Z,1015.10
2018-11-13T11:22:12.300Z,1015.12
2018-11-13T11:23:12.578Z,1015.18
2018-11-13T11:24:12.325Z,1015.21
2018-11-13T11:25:12.284Z,1015.34
2018-11-13T11:26:12.217Z,1015.41
2018-11-13T11:27:12.197Z,1015.45
2018-11-13T11:28:12.195Z,1015.39
2018-11-13T11:29:12.158Z,1015.44
2018-11-13T11:30:12.137Z,1015.46
2018-11-13T11:31:12.122Z,1015.52
2018-11-13T11:32:12.096Z,1015.53
2018-11-13T11:33:12.074Z,1015.43
2018-11-13T11:34:12.057Z,1015.43
2018-11-13T11:35:12.044Z,1015.48
2018-11-13T11:36:12.013Z,1015.48
2018-11-13T11:37:11.995Z,1015.45
2018-11-13T11:38:11.970Z,1015.45
2018-11-13T11:39:11.967Z,1015.57
2018-11-13T11:40:11.930Z,1015.50
2018-11-13T11:41:11.909Z,1015.53
2018-11-13T11:42:11.890Z,1015.55
2018-11-13T11:43:11.869Z,1015.51
2018-11-13T11:44:11.850Z,1015.43
2018-11-13T11:45:11.827Z,1015.49
2018-11-13T11:46:11.809Z,1015.49
2018-11-13T11:47:11.791Z,1015.53
2018-11-13T11:48:11.764Z,1015.50
2018-11-13T11:49:11.746Z,1015.54
2018-11-13T11:50:11.724Z,1015.62
2018-11-13T11:51:11.702Z,1015.55
2018-11-13T11:52:11.680Z,1015.57
2018-11-13T11:53:11.660Z,1015.52
2018-11-13T11:54:12.552Z,1015.55
2018-11-13T11:55:11.623Z,1015.59
2018-11-13T11:56:11.601Z,1015.58
2018-11-13T11:57:11.575Z,1015.63
2018-11-13T11:58:13.251Z,1015.57
2018-11-13T11:59:11.535Z,1015.57
2018-11-13T12:00:11.513Z,1015.65
2018-11-13T12:01:11.492Z,1015.68
2018-11-13T12:02:11.527Z,1015.66
2018-11-13T12:03:11.451Z,1015.64
2018-11-13T12:04:11.430Z,1015.65
2018-11-13T12:05:11.408Z,1015.67